createdAt,value
2023-04-15T00:02:22.184Z,7.63
2023-04-15T00:05:30.910Z,6.22
2023-04-15T00:08:42.267Z,5.75
2023-04-15T00:11:51.119Z,6.70
2023-04-15T00:15:06.506Z,6.10
2023-04-15T00:18:08.296Z,6.63
2023-04-15T00:21:23.452Z,7.37
2023-04-15T00:24:41.461Z,7.90
2023-04-15T00:27:58.954Z,7.07
2023-04-15T00:31:07.533Z,6.70
2023-04-15T00:34:25.752Z,8.33
2023-04-15T00:37:45.568Z,8.70
2023-04-15T00:41:01.010Z,7.40
2023-04-15T00:44:15.709Z,7.90
2023-04-15T00:47:35.592Z,6.97
2023-04-15T00:50:52.441Z,8.60
2023-04-15T00:54:05.472Z,6.15
2023-04-15T00:57:14.027Z,5.53
2023-04-15T01:00:23.500Z,8.10
2023-04-15T01:03:51.522Z,8.70
2023-04-15T01:07:09.797Z,6.07
2023-04-15T01:10:24.585Z,9.23
2023-04-15T01:13:49.469Z,7.72
2023-04-15T01:17:14.557Z,7.68
2023-04-15T01:20:26.657Z,7.93
2023-04-15T01:23:44.718Z,7.33
2023-04-15T01:26:56.149Z,6.20
2023-04-15T01:30:15.694Z,6.80
2023-04-15T01:33:23.530Z,7.65
2023-04-15T01:36:39.490Z,7.43
2023-04-15T01:39:48.266Z,7.47
2023-04-15T01:43:02.575Z,7.12
2023-04-15T01:46:11.356Z,7.70
2023-04-15T01:49:19.485Z,7.37
2023-04-15T01:52:34.521Z,7.57
2023-04-15T01:55:36.381Z,7.37
2023-04-15T01:58:51.551Z,8.68
2023-04-15T02:02:02.733Z,8.30
2023-04-15T02:05:11.492Z,8.48
2023-04-15T02:08:26.501Z,7.20
2023-04-15T02:11:35.514Z,8.23
2023-04-15T02:14:46.593Z,8.95
2023-04-15T02:21:19.670Z,9.15
2023-04-15T02:24:27.785Z,8.00
2023-04-15T02:27:42.566Z,9.83
2023-04-15T02:30:49.507Z,9.45
2023-04-15T02:34:06.794Z,7.97
2023-04-15T02:37:16.528Z,9.95
2023-04-15T02:40:41.058Z,7.70
2023-04-15T02:43:50.526Z,8.33
2023-04-15T02:47:19.561Z,7.18
2023-04-15T02:50:35.533Z,9.60
2023-04-15T02:53:44.091Z,8.82
2023-04-15T02:56:52.822Z,7.97
2023-04-15T03:00:10.524Z,6.50
2023-04-15T03:03:12.503Z,9.15
2023-04-15T03:06:27.893Z,9.65
2023-04-15T03:09:36.585Z,7.80
2023-04-15T03:12:51.760Z,9.20
2023-04-15T03:15:54.150Z,10.07
2023-04-15T03:19:09.538Z,7.82
2023-04-15T03:22:11.206Z,7.32
2023-04-15T03:25:26.574Z,7.80
2023-04-15T03:28:36.988Z,9.40
2023-04-15T03:31:51.545Z,6.87
2023-04-15T03:34:53.254Z,10.93
2023-04-15T03:38:07.563Z,9.77
2023-04-15T03:41:22.584Z,8.57
2023-04-15T03:44:38.254Z,9.13
2023-04-15T03:47:40.246Z,9.20
2023-04-15T03:50:54.589Z,8.90
2023-04-15T03:54:03.234Z,7.90
2023-04-15T03:57:11.586Z,8.45
2023-04-15T04:00:26.568Z,7.50
2023-04-15T04:03:28.523Z,7.87
2023-04-15T04:06:43.650Z,6.28
2023-04-15T04:09:53.356Z,6.20
2023-04-15T04:13:07.638Z,7.28
2023-04-15T04:16:09.346Z,6.43
2023-04-15T04:19:28.649Z,7.70
2023-04-15T04:22:36.560Z,7.20
2023-04-15T04:25:45.470Z,7.18
2023-04-15T04:28:53.709Z,6.35
2023-04-15T04:32:02.624Z,7.87
2023-04-15T04:35:12.056Z,7.37
2023-04-15T04:38:27.618Z,6.80
2023-04-15T04:41:42.853Z,7.87
2023-04-15T04:44:51.577Z,6.22
2023-04-15T04:48:00.165Z,7.13
2023-04-15T04:51:09.067Z,6.20
2023-04-15T04:54:21.598Z,7.55
2023-04-15T04:57:36.556Z,8.02
2023-04-15T05:00:53.775Z,6.97
2023-04-15T05:04:08.666Z,7.03
2023-04-15T05:07:18.114Z,7.93
2023-04-15T05:10:35.741Z,8.27
2023-04-15T05:13:51.889Z,7.90
2023-04-15T05:16:56.611Z,6.62
2023-04-15T05:20:14.634Z,10.40
2023-04-15T05:23:23.279Z,7.97
2023-04-15T05:26:31.654Z,7.37
2023-04-15T05:29:40.070Z,7.82
2023-04-15T05:32:48.658Z,9.23
2023-04-15T05:36:03.635Z,7.37
2023-04-15T05:39:06.660Z,10.23
2023-04-15T05:42:31.608Z,6.95
2023-04-15T05:45:33.271Z,8.70
2023-04-15T05:48:48.892Z,7.07
2023-04-15T05:51:51.073Z,6.83
2023-04-15T05:55:05.682Z,7.50
2023-04-15T05:58:13.660Z,7.32
2023-04-15T06:01:28.677Z,8.63
2023-04-15T06:04:37.752Z,7.53
2023-04-15T06:08:04.228Z,6.93
2023-04-15T06:11:05.883Z,8.20
2023-04-15T06:14:20.616Z,7.53
2023-04-15T06:17:22.443Z,9.48
2023-04-15T06:20:36.938Z,8.23
2023-04-15T06:23:45.714Z,7.57
2023-04-15T06:26:53.672Z,8.00
2023-04-15T06:30:02.213Z,8.68
2023-04-15T06:33:12.741Z,6.68
2023-04-15T06:36:21.569Z,10.32
2023-04-15T06:39:45.686Z,7.27
2023-04-15T06:43:01.662Z,9.07
2023-04-15T06:46:21.674Z,7.90
2023-04-15T06:49:30.303Z,7.95
2023-04-15T06:52:38.667Z,7.60
2023-04-15T06:55:53.688Z,7.07
2023-04-15T06:59:07.667Z,6.37
2023-04-15T07:02:16.523Z,7.80
2023-04-15T07:05:24.933Z,7.00
2023-04-15T07:08:34.638Z,7.18
2023-04-15T07:11:43.668Z,7.30
2023-04-15T07:14:58.693Z,6.50
2023-04-15T07:18:09.824Z,6.90
2023-04-15T07:21:18.184Z,7.93
2023-04-15T07:24:26.688Z,6.47
2023-04-15T07:27:43.773Z,6.60
2023-04-15T07:30:50.814Z,6.70
2023-04-15T07:34:05.653Z,6.57
2023-04-15T07:37:13.989Z,6.12
2023-04-15T07:40:35.694Z,5.75
2023-04-15T07:43:44.851Z,5.53
2023-04-15T07:47:01.226Z,7.53
2023-04-15T07:50:03.005Z,4.90
2023-04-15T07:53:17.711Z,11.15
2023-04-15T07:59:49.441Z,5.77
2023-04-15T08:02:58.170Z,4.73
2023-04-15T08:06:07.118Z,4.60
2023-04-15T08:09:24.055Z,4.45
2023-04-15T08:12:35.748Z,5.07
2023-04-15T08:15:45.749Z,5.47
2023-04-15T08:18:57.033Z,5.43
2023-04-15T08:22:18.100Z,3.47
2023-04-15T08:25:27.944Z,3.53
2023-04-15T08:28:49.714Z,4.07
2023-04-15T08:32:06.702Z,3.57
2023-04-15T08:35:18.123Z,4.70
2023-04-15T08:38:31.368Z,3.72
2023-04-15T08:41:51.697Z,4.22
2023-04-15T08:45:06.714Z,4.65
2023-04-15T08:48:10.067Z,3.97
2023-04-15T08:51:25.111Z,4.53
2023-04-15T08:54:27.578Z,3.70
2023-04-15T08:57:46.682Z,4.55
2023-04-15T09:00:49.054Z,5.75
2023-04-15T09:04:09.759Z,4.43
2023-04-15T09:07:11.802Z,4.07
2023-04-15T09:10:31.777Z,4.40
2023-04-15T09:13:48.997Z,3.42
2023-04-15T09:17:09.702Z,9.90
2023-04-15T09:20:19.066Z,4.17
2023-04-15T09:23:27.785Z,3.67
2023-04-15T09:26:37.939Z,3.17
2023-04-15T09:29:47.769Z,2.80
2023-04-15T09:33:03.550Z,5.15
2023-04-15T09:36:17.755Z,4.00
2023-04-15T09:39:30.822Z,2.87
2023-04-15T09:42:59.569Z,2.95
2023-04-15T09:46:11.175Z,3.33
2023-04-15T09:49:20.295Z,5.55
2023-04-15T09:52:48.850Z,5.47
2023-04-15T09:56:07.502Z,7.57
2023-04-15T09:59:10.298Z,5.05
2023-04-15T10:02:26.852Z,5.68
2023-04-15T10:05:35.763Z,5.40
2023-04-15T10:08:54.440Z,4.23
2023-04-15T10:12:02.828Z,6.57
2023-04-15T10:18:43.735Z,3.47
2023-04-15T10:21:53.132Z,3.80
2023-04-15T10:25:06.788Z,3.90
2023-04-15T10:28:22.967Z,4.07
2023-04-15T10:31:35.823Z,3.45
2023-04-15T10:34:54.861Z,3.90
2023-04-15T10:37:56.643Z,4.15
2023-04-15T10:41:30.790Z,4.03
2023-04-15T10:44:43.800Z,4.00
2023-04-15T10:48:04.826Z,3.33
2023-04-15T10:51:21.501Z,3.83
2023-04-15T10:54:40.813Z,2.78
2023-04-15T10:57:48.141Z,1.83
2023-04-15T11:01:05.185Z,3.27
2023-04-15T11:04:07.293Z,3.37
2023-04-15T11:07:21.741Z,4.28
2023-04-15T11:10:58.884Z,3.50
2023-04-15T11:14:20.634Z,4.27
2023-04-15T11:17:37.058Z,3.63
2023-04-15T11:20:56.607Z,2.87
2023-04-15T11:24:07.483Z,3.12
2023-04-15T11:27:15.769Z,2.37
2023-04-15T11:30:26.405Z,4.63
2023-04-15T11:33:39.460Z,3.80
2023-04-15T11:36:56.841Z,5.12
2023-04-15T11:40:03.215Z,2.60
2023-04-15T11:43:26.831Z,6.70
2023-04-15T11:46:30.827Z,3.20
2023-04-15T11:49:46.097Z,3.93
2023-04-15T11:52:57.435Z,5.57
2023-04-15T11:56:15.779Z,2.83
2023-04-15T11:59:44.302Z,1.87
2023-04-15T12:02:47.161Z,1.70
2023-04-15T12:06:28.801Z,2.63
2023-04-15T12:09:39.854Z,1.87
2023-04-15T12:12:56.998Z,2.62
2023-04-15T12:16:05.521Z,2.15
2023-04-15T12:19:22.101Z,2.93
2023-04-15T12:22:30.803Z,3.67
2023-04-15T12:25:42.143Z,3.60
2023-04-15T12:28:50.798Z,3.05
2023-04-15T12:32:13.290Z,3.28
2023-04-15T12:35:21.813Z,3.46
2023-04-15T12:38:45.823Z,4.00
2023-04-15T12:41:47.518Z,5.80
2023-04-15T12:45:02.709Z,4.87
2023-04-15T12:48:11.846Z,3.87
2023-04-15T12:51:20.923Z,14.97
2023-04-15T12:54:31.852Z,3.10
2023-04-15T13:01:02.869Z,4.20
2023-04-15T13:04:11.432Z,3.33
2023-04-15T13:07:22.849Z,4.60
2023-04-15T13:10:31.737Z,6.03
2023-04-15T13:13:43.120Z,3.97
2023-04-15T13:16:57.934Z,3.47
2023-04-15T13:20:10.322Z,5.72
2023-04-15T13:23:19.527Z,5.03
2023-04-15T13:26:27.546Z,3.73
2023-04-15T13:29:39.073Z,4.80
2023-04-15T13:32:57.181Z,5.43
2023-04-15T13:39:42.621Z,3.13
2023-04-15T13:42:53.787Z,3.83
2023-04-15T13:46:09.172Z,2.85
2023-04-15T13:49:11.051Z,3.53
2023-04-15T13:52:25.921Z,3.47
2023-04-15T13:55:43.960Z,4.27
2023-04-15T13:58:45.818Z,6.80
2023-04-15T14:02:01.045Z,4.97
2023-04-15T14:05:13.874Z,5.03
2023-04-15T14:08:23.885Z,5.00
2023-04-15T14:11:34.186Z,4.87
2023-04-15T14:14:48.902Z,3.00
2023-04-15T14:17:50.713Z,4.85
2023-04-15T14:21:05.895Z,3.83
2023-04-15T14:24:14.415Z,4.43
2023-04-15T14:27:23.893Z,5.67
2023-04-15T14:30:34.161Z,6.07
2023-04-15T14:33:43.184Z,6.68
2023-04-15T14:36:59.905Z,7.70
2023-04-15T14:40:27.856Z,7.00
2023-04-15T14:43:42.866Z,7.10
2023-04-15T14:47:02.432Z,6.03
2023-04-15T14:50:11.221Z,6.82
2023-04-15T14:53:19.526Z,7.35
2023-04-15T14:56:34.887Z,6.78
2023-04-15T14:59:39.141Z,5.27
2023-04-15T15:02:54.770Z,6.97
2023-04-15T15:05:57.106Z,4.55
2023-04-15T15:09:11.925Z,5.35
2023-04-15T15:12:14.057Z,6.25
2023-04-15T15:15:29.304Z,3.77
2023-04-15T15:18:31.904Z,3.50
2023-04-15T15:21:51.002Z,4.28
2023-04-15T15:24:52.890Z,4.72
2023-04-15T15:28:07.960Z,2.45
2023-04-15T15:34:57.230Z,3.23
2023-04-15T15:38:11.920Z,4.30
2023-04-15T15:41:46.886Z,4.05
2023-04-15T15:44:58.180Z,3.53
2023-04-15T15:48:13.050Z,2.80
2023-04-15T15:51:21.909Z,7.33
2023-04-15T15:54:33.225Z,4.65
2023-04-15T15:57:40.907Z,5.12
2023-04-15T16:00:58.773Z,5.93
2023-04-15T16:04:09.372Z,4.57
2023-04-15T16:07:23.958Z,5.50
2023-04-15T16:10:33.125Z,5.62
2023-04-15T16:13:41.960Z,5.57
2023-04-15T16:17:00.472Z,7.45
2023-04-15T16:20:02.223Z,5.67
2023-04-15T16:23:21.975Z,5.80
2023-04-15T16:26:32.942Z,5.65
2023-04-15T16:29:48.931Z,7.57
2023-04-15T16:33:04.984Z,7.70
2023-04-15T16:36:06.950Z,5.43
2023-04-15T16:39:22.269Z,4.50
2023-04-15T16:42:43.948Z,5.78
2023-04-15T16:45:58.977Z,4.25
2023-04-15T16:49:07.958Z,5.22
2023-04-15T16:52:16.506Z,5.33
2023-04-15T16:55:24.961Z,5.30
2023-04-15T16:58:34.451Z,6.25
2023-04-15T17:01:43.001Z,5.20
2023-04-15T17:05:00.397Z,8.25
2023-04-15T17:08:02.052Z,5.40
2023-04-15T17:11:17.158Z,5.90
2023-04-15T17:14:26.968Z,5.28
2023-04-15T17:17:35.523Z,5.50
2023-04-15T17:20:44.018Z,5.43
2023-04-15T17:23:52.807Z,5.43
2023-04-15T17:27:03.214Z,10.63
2023-04-15T17:30:18.036Z,7.87
2023-04-15T17:34:00.870Z,5.50
2023-04-15T17:37:01.970Z,7.30
2023-04-15T17:40:04.828Z,6.13
2023-04-15T17:43:27.977Z,6.97
2023-04-15T17:46:36.054Z,6.28
2023-04-15T17:49:44.576Z,6.75
2023-04-15T17:52:52.998Z,6.70
2023-04-15T17:56:01.521Z,7.43
2023-04-15T17:59:19.223Z,6.93
2023-04-15T18:02:27.884Z,9.32
2023-04-15T18:05:45.127Z,6.78
2023-04-15T18:08:47.548Z,7.00
2023-04-15T18:12:02.238Z,17.73
2023-04-15T18:15:04.324Z,11.53
2023-04-15T18:18:21.109Z,6.85
2023-04-15T18:21:31.012Z,12.25
2023-04-15T18:24:50.028Z,10.20
2023-04-15T18:27:51.758Z,10.43
2023-04-15T18:31:06.147Z,9.77
2023-04-15T18:34:07.970Z,7.87
2023-04-15T18:37:27.998Z,11.57
2023-04-15T18:40:29.765Z,8.10
2023-04-15T18:44:01.973Z,7.23
2023-04-15T18:47:10.008Z,7.10
2023-04-15T18:50:20.062Z,8.75
2023-04-15T18:53:28.086Z,7.03
2023-04-15T18:56:36.567Z,6.90
2023-04-15T18:59:52.269Z,8.53
2023-04-15T19:03:00.665Z,6.73
2023-04-15T19:06:15.030Z,8.60
2023-04-15T19:09:24.346Z,7.25
2023-04-15T19:12:35.025Z,6.72
2023-04-15T19:15:44.154Z,8.10
2023-04-15T19:18:59.266Z,12.20
2023-04-15T19:22:15.014Z,8.13
2023-04-15T19:25:23.747Z,8.75
2023-04-15T19:28:31.721Z,7.55
2023-04-15T19:31:55.473Z,7.93
2023-04-15T19:35:12.039Z,7.73
2023-04-15T19:38:27.043Z,10.45
2023-04-15T19:41:42.114Z,9.15
2023-04-15T19:44:57.045Z,7.72
2023-04-15T19:48:12.217Z,7.23
2023-04-15T19:51:31.064Z,8.80
2023-04-15T19:54:39.605Z,8.65
2023-04-15T19:57:48.069Z,6.72
2023-04-15T20:01:05.110Z,7.87
2023-04-15T20:18:28.033Z,7.87
2023-04-15T20:21:44.473Z,10.48
2023-04-15T20:24:59.015Z,10.70
2023-04-15T20:28:14.009Z,10.38
2023-04-15T20:31:15.927Z,8.73
2023-04-15T20:34:31.400Z,10.93
2023-04-15T20:37:40.026Z,10.10
2023-04-15T20:40:49.873Z,10.65
2023-04-15T20:43:59.021Z,8.38
2023-04-15T20:47:10.078Z,9.23
2023-04-15T20:50:20.253Z,12.40
2023-04-15T20:53:35.533Z,9.30
2023-04-15T20:56:39.821Z,9.82
2023-04-15T20:59:55.036Z,9.10
2023-04-15T21:02:56.863Z,8.17
2023-04-15T21:06:12.102Z,9.60
2023-04-15T21:09:14.151Z,8.77
2023-04-15T21:12:29.054Z,8.13
2023-04-15T21:15:30.721Z,10.23
2023-04-15T21:18:53.266Z,8.43
2023-04-15T21:22:01.428Z,7.73
2023-04-15T21:25:09.981Z,7.72
2023-04-15T21:28:29.124Z,5.15
2023-04-15T21:31:41.358Z,6.70
2023-04-15T21:34:49.084Z,7.40
2023-04-15T21:38:04.179Z,7.30
2023-04-15T21:41:05.856Z,6.75
2023-04-15T21:44:21.090Z,7.35
2023-04-15T21:47:30.103Z,8.15
2023-04-15T21:50:39.112Z,7.60
2023-04-15T21:53:47.377Z,6.13
2023-04-15T21:57:02.286Z,7.03
2023-04-15T22:00:14.255Z,8.43
2023-04-15T22:03:30.235Z,6.20
2023-04-15T22:06:38.050Z,5.87
2023-04-15T22:09:46.797Z,8.53
2023-04-15T22:12:55.095Z,6.05
2023-04-15T22:16:10.081Z,5.30
2023-04-15T22:19:32.062Z,6.75
2023-04-15T22:22:33.828Z,9.67
2023-04-15T22:25:59.172Z,9.13
2023-04-15T22:29:00.998Z,8.95
2023-04-15T22:32:17.073Z,7.22
2023-04-15T22:35:18.666Z,8.00
2023-04-15T22:38:33.073Z,10.50
2023-04-15T22:41:42.592Z,10.00
2023-04-15T22:44:51.292Z,8.88
2023-04-15T22:47:59.134Z,11.02
2023-04-15T22:51:08.685Z,11.20
2023-04-15T22:54:19.743Z,12.57
2023-04-15T22:57:28.380Z,13.13
2023-04-15T23:00:39.932Z,15.32
2023-04-15T23:03:55.925Z,15.50
2023-04-15T23:07:14.092Z,15.73
2023-04-15T23:10:23.060Z,13.77
2023-04-15T23:13:38.325Z,14.73
2023-04-15T23:16:46.092Z,14.00
2023-04-15T23:20:04.306Z,13.40
2023-04-15T23:23:12.922Z,16.42
2023-04-15T23:26:22.097Z,13.20
2023-04-15T23:29:37.110Z,14.93
2023-04-15T23:32:46.687Z,14.95
2023-04-15T23:36:01.148Z,16.67
2023-04-15T23:39:02.839Z,17.45
2023-04-15T23:42:18.073Z,16.87
2023-04-15T23:45:19.961Z,18.77
2023-04-15T23:48:35.125Z,16.08
2023-04-15T23:51:43.142Z,21.17
2023-04-15T23:54:58.121Z,17.02
2023-04-15T23:57:59.776Z,18.00
